Medora, North Dakota
Current Conditions -  °F | °C
As of 12:56 AM on Friday 24 Oct 2014 (Local Time) from KDIK Reporting Station
Clear Clear  
Wind Chill: 42°   Ceiling: Unl
Heat Index: 46°   Visibility: 10mi
Dew Point: 32°   Wind: 7mph
Humidity: 58%   Direction: 290°WNW
Pressure: 29.81"   Gusts: NA
Location:  46.91°N, 103.52°W
Report Text: KDIK 240656Z AUTO 29006KT 10SM CLR 08/00 A2981 RMK AO2 SLP090 T00780000 402280017
Loading
Personal Weather Stations






























Interactive Weather Map
Tropical Storm Tracking
New forecast layout! Learn more

10-Day Weather Forecast

Advertisements
Track Severe Weather on mobile